Longmont, CO (80501)

09:52 AM MDT die 30o October, anno 2014 (GMT -0600)
Northridge Elementary School | Change Station
CLOSE
Current Station
Personal Weather Stations
Location: Longmont, CO
Elevation: 5043 ft
Nearby Weather Stations

Elev 5043 ft 40.19 °N, 105.11 °W | Updated 12 seconds ago

Serena
Serena
53.2 °F
Feels Like 53.2 °F
N
0.0
Ventus Variabilis Ventus from Inter Austrum et Zephyrum
Gusts 5.0 mph

Hodie
High -- | Low -- °F
--% Chance of Precip.
Yesterday
High -- | Low -- °F
Precip. -- in
7:27 AM 5:59 PM
Waxing Crescent, 45% visible
Pressio 30.40 in
Visibilitas 10.0 milia passuum
Clouds Serena
Frigus in quo Ros apparet 30 °F
Umor 41%
Rainfall 0.00 in
Snow Depth Not available.
UV 1.6 out of 12
Pollen 1.20 out of 12
Air Quality Not available.
Flu Activity Not available.
METAR KLMO 301533Z AUTO 00000KT 10SM CLR 12/00 A3040 RMK AO2 T01241004

More Conditions Fewer Conditions

Pressio 30.40 in
Visibilitas 10.0 milia passuum
Clouds Serena
Frigus in quo Ros apparet 30 °F
Umor 41%
Rainfall 0.00 in
Snow Depth Not available.
UV 1.6 out of 12
Pollen 1.20 out of 12
Air Quality Not available.
Flu Activity Not available.
METAR KLMO 301533Z AUTO 00000KT 10SM CLR 12/00 A3040 RMK AO2 T01241004

More Conditions Fewer Conditions

10-Day Weather Forecast

Almanac

Astronomy

Oct. 30, 2014 Rise Set
Actual Time
Civil Twilight
Nautical Twilight
Astronomical Twilight
Moon
Length Of Visible Light
Length of Day
Tomorrow will be .
, % of the Moon is Illuminated

Today's Extremes

State Highs State Lows

Community

WunderPhotos

Upload Photos

1,766,389 photos uploaded!

WunderBlogs® & News

Nearby

Air Quality

  Air Quality AQ Index Pollutant
Not available.

Snow Depth

Station Depth Elevation

Earthquake Activity

City Distance Mag. Time & Date
Minimum magnitude displayed is 2.5.

Coastal Water Temperatures

Locus Calor

Nearby Weather Stations